Saint-Jean-De-Dieu, Canada
Current Conditions -  °F | °C
As of 4:00 AM on Monday 24 Nov 2014 (Local Time) from CYYY Reporting Station
Overcast Overcast  
Wind Chill: 33°   Ceiling: 2500
Heat Index: 39°   Visibility: 30mi
Dew Point: 32°   Wind: 9mph
Humidity: 75%   Direction: 150°SSE
Pressure: 30"   Gusts: NA
Location:  48.02°N, 69.05°W
Report Text: CYYY 240900Z 15008KT 30SM OVC025 04/00 A3000 RMK SC8 SLP160
Loading
Personal Weather Stations






























Interactive Weather Map New forecast layout! Learn more

10-Day Weather Forecast

Advertisements
Track Severe Weather on mobile